sensor_id;sensor_type;location;lat;lon;timestamp;pressure;altitude;pressure_sealevel;temperature;humidity
85256;BME280;75660;52.380;4.876;2024-01-11T00:00:57;103420.41;;;16.43;23.80
85256;BME280;75660;52.380;4.876;2024-01-11T00:03:24;103420.56;;;16.42;23.66
85256;BME280;75660;52.380;4.876;2024-01-11T00:05:49;103408.19;;;16.38;23.92
85256;BME280;75660;52.380;4.876;2024-01-11T00:08:15;103415.25;;;16.40;23.66
85256;BME280;75660;52.380;4.876;2024-01-11T00:10:40;103412.50;;;16.40;24.01
85256;BME280;75660;52.380;4.876;2024-01-11T00:13:06;103409.03;;;16.38;24.07
85256;BME280;75660;52.380;4.876;2024-01-11T00:15:32;103405.59;;;16.36;23.60
85256;BME280;75660;52.380;4.876;2024-01-11T00:17:58;103410.53;;;16.33;24.01
85256;BME280;75660;52.380;4.876;2024-01-11T00:20:23;103410.38;;;16.34;23.92
85256;BME280;75660;52.380;4.876;2024-01-11T00:22:48;103407.78;;;16.33;23.71
85256;BME280;75660;52.380;4.876;2024-01-11T00:25:15;103413.59;;;16.30;24.02
85256;BME280;75660;52.380;4.876;2024-01-11T00:27:41;103413.25;;;16.33;24.19
85256;BME280;75660;52.380;4.876;2024-01-11T00:30:07;103415.34;;;16.31;24.13
85256;BME280;75660;52.380;4.876;2024-01-11T00:32:32;103401.91;;;16.28;23.92
85256;BME280;75660;52.380;4.876;2024-01-11T00:35:00;103399.88;;;16.30;24.31
85256;BME280;75660;52.380;4.876;2024-01-11T00:37:26;103401.63;;;16.31;24.37
85256;BME280;75660;52.380;4.876;2024-01-11T00:39:51;103398.47;;;16.26;24.39
85256;BME280;75660;52.380;4.876;2024-01-11T00:42:17;103405.38;;;16.30;23.87
85256;BME280;75660;52.380;4.876;2024-01-11T00:44:43;103411.00;;;16.28;24.63
85256;BME280;75660;52.380;4.876;2024-01-11T00:47:10;103418.94;;;16.31;24.43
85256;BME280;75660;52.380;4.876;2024-01-11T00:49:35;103413.44;;;16.31;24.56
85256;BME280;75660;52.380;4.876;2024-01-11T00:52:01;103408.28;;;16.28;24.41
85256;BME280;75660;52.380;4.876;2024-01-11T00:54:26;103413.75;;;16.28;24.27
85256;BME280;75660;52.380;4.876;2024-01-11T00:56:52;103410.84;;;16.30;24.39
85256;BME280;75660;52.380;4.876;2024-01-11T00:59:17;103407.41;;;16.28;24.39
85256;BME280;75660;52.380;4.876;2024-01-11T01:01:47;103410.16;;;16.28;24.58
85256;BME280;75660;52.380;4.876;2024-01-11T01:04:13;103405.69;;;16.27;24.22
85256;BME280;75660;52.380;4.876;2024-01-11T01:06:39;103411.47;;;16.23;24.17
85256;BME280;75660;52.380;4.876;2024-01-11T01:09:05;103408.03;;;16.21;24.41
85256;BME280;75660;52.380;4.876;2024-01-11T01:11:31;103414.38;;;16.22;24.11
85256;BME280;75660;52.380;4.876;2024-01-11T01:13:56;103421.72;;;16.21;24.46
85256;BME280;75660;52.380;4.876;2024-01-11T01:16:21;103411.78;;;16.20;24.41
85256;BME280;75660;52.380;4.876;2024-01-11T01:18:47;103415.53;;;16.19;24.44
85256;BME280;75660;52.380;4.876;2024-01-11T01:21:12;103415.88;;;16.16;24.37
85256;BME280;75660;52.380;4.876;2024-01-11T01:23:38;103423.09;;;16.17;24.36
85256;BME280;75660;52.380;4.876;2024-01-11T01:26:03;103419.84;;;16.22;24.45
85256;BME280;75660;52.380;4.876;2024-01-11T01:28:29;103427.94;;;16.23;24.59
85256;BME280;75660;52.380;4.876;2024-01-11T01:30:54;103426.50;;;16.19;24.61
85256;BME280;75660;52.380;4.876;2024-01-11T01:33:19;103432.00;;;16.19;24.51
85256;BME280;75660;52.380;4.876;2024-01-11T01:35:45;103425.66;;;16.19;24.64
85256;BME280;75660;52.380;4.876;2024-01-11T01:38:11;103425.13;;;16.15;24.89
85256;BME280;75660;52.380;4.876;2024-01-11T01:40:37;103412.41;;;16.14;24.68
85256;BME280;75660;52.380;4.876;2024-01-11T01:43:06;103409.84;;;16.13;24.41
85256;BME280;75660;52.380;4.876;2024-01-11T01:45:32;103416.34;;;16.12;24.46
85256;BME280;75660;52.380;4.876;2024-01-11T01:47:57;103426.84;;;16.16;24.93
85256;BME280;75660;52.380;4.876;2024-01-11T01:50:23;103429.75;;;16.15;24.68
85256;BME280;75660;52.380;4.876;2024-01-11T01:52:48;103433.50;;;16.14;24.60
85256;BME280;75660;52.380;4.876;2024-01-11T01:55:15;103440.16;;;16.11;24.65
85256;BME280;75660;52.380;4.876;2024-01-11T01:57:41;103441.72;;;16.14;24.72
85256;BME280;75660;52.380;4.876;2024-01-11T02:00:09;103449.81;;;16.15;24.90
85256;BME280;75660;52.380;4.876;2024-01-11T02:02:36;103449.09;;;16.13;24.45
85256;BME280;75660;52.380;4.876;2024-01-11T02:05:03;103447.66;;;16.09;25.34
85256;BME280;75660;52.380;4.876;2024-01-11T02:07:29;103440.16;;;16.11;24.86
85256;BME280;75660;52.380;4.876;2024-01-11T02:09:55;103439.28;;;16.11;24.87
85256;BME280;75660;52.380;4.876;2024-01-11T02:12:21;103438.44;;;16.10;25.07
85256;BME280;75660;52.380;4.876;2024-01-11T02:14:47;103438.72;;;16.07;25.10
85256;BME280;75660;52.380;4.876;2024-01-11T02:17:12;103431.22;;;16.09;25.38
85256;BME280;75660;52.380;4.876;2024-01-11T02:19:38;103428.31;;;16.11;25.01
85256;BME280;75660;52.380;4.876;2024-01-11T02:22:15;103431.38;;;16.08;24.84
85256;BME280;75660;52.380;4.876;2024-01-11T02:24:46;103438.88;;;16.06;25.03
85256;BME280;75660;52.380;4.876;2024-01-11T02:27:11;103437.72;;;16.08;24.75
85256;BME280;75660;52.380;4.876;2024-01-11T02:29:37;103437.16;;;16.05;25.28
85256;BME280;75660;52.380;4.876;2024-01-11T02:32:02;103431.81;;;16.03;24.71
85256;BME280;75660;52.380;4.876;2024-01-11T02:34:30;103429.25;;;16.02;25.01
85256;BME280;75660;52.380;4.876;2024-01-11T02:36:56;103436.13;;;16.06;25.03
85256;BME280;75660;52.380;4.876;2024-01-11T02:39:23;103433.09;;;16.09;25.19
85256;BME280;75660;52.380;4.876;2024-01-11T02:41:50;103438.00;;;16.05;25.10
85256;BME280;75660;52.380;4.876;2024-01-11T02:44:16;103430.66;;;16.06;25.31
85256;BME280;75660;52.380;4.876;2024-01-11T02:46:41;103428.41;;;16.01;25.61
85256;BME280;75660;52.380;4.876;2024-01-11T02:49:07;103427.03;;;16.05;25.06
85256;BME280;75660;52.380;4.876;2024-01-11T02:51:32;103433.69;;;16.03;25.28
85256;BME280;75660;52.380;4.876;2024-01-11T02:53:58;103435.28;;;16.05;25.15
85256;BME280;75660;52.380;4.876;2024-01-11T02:56:24;103434.56;;;16.03;25.25
85256;BME280;75660;52.380;4.876;2024-01-11T02:58:49;103441.78;;;16.04;25.31
85256;BME280;75660;52.380;4.876;2024-01-11T03:01:15;103443.66;;;16.04;25.69
85256;BME280;75660;52.380;4.876;2024-01-11T03:03:41;103444.13;;;15.99;25.54
85256;BME280;75660;52.380;4.876;2024-01-11T03:06:06;103430.72;;;15.96;25.21
85256;BME280;75660;52.380;4.876;2024-01-11T03:08:32;103430.72;;;15.96;25.44
85256;BME280;75660;52.380;4.876;2024-01-11T03:10:58;103436.91;;;15.98;25.71
85256;BME280;75660;52.380;4.876;2024-01-11T03:13:23;103438.50;;;16.01;25.33
85256;BME280;75660;52.380;4.876;2024-01-11T03:15:49;103451.50;;;15.99;25.76
85256;BME280;75660;52.380;4.876;2024-01-11T03:18:14;103441.69;;;15.96;25.64
85256;BME280;75660;52.380;4.876;2024-01-11T03:20:40;103435.91;;;15.99;25.47
85256;BME280;75660;52.380;4.876;2024-01-11T03:23:05;103433.16;;;15.99;25.26
85256;BME280;75660;52.380;4.876;2024-01-11T03:25:31;103431.44;;;15.98;25.70
85256;BME280;75660;52.380;4.876;2024-01-11T03:27:57;103442.56;;;15.97;25.75
85256;BME280;75660;52.380;4.876;2024-01-11T03:30:24;103438.94;;;15.96;25.65
85256;BME280;75660;52.380;4.876;2024-01-11T03:32:49;103432.44;;;15.97;25.77
85256;BME280;75660;52.380;4.876;2024-01-11T03:35:15;103432.75;;;15.94;25.33
85256;BME280;75660;52.380;4.876;2024-01-11T03:37:40;103430.72;;;15.96;25.64
85256;BME280;75660;52.380;4.876;2024-01-11T03:40:06;103429.44;;;15.91;25.53
85256;BME280;75660;52.380;4.876;2024-01-11T03:42:32;103433.06;;;15.91;25.43
85256;BME280;75660;52.380;4.876;2024-01-11T03:44:57;103430.16;;;15.93;25.62
85256;BME280;75660;52.380;4.876;2024-01-11T03:47:23;103441.13;;;15.93;25.91
85256;BME280;75660;52.380;4.876;2024-01-11T03:49:48;103438.25;;;15.94;25.77
85256;BME280;75660;52.380;4.876;2024-01-11T03:52:14;103445.44;;;15.95;25.97
85256;BME280;75660;52.380;4.876;2024-01-11T03:54:39;103442.00;;;15.93;25.86
85256;BME280;75660;52.380;4.876;2024-01-11T03:57:05;103444.03;;;15.91;25.66
85256;BME280;75660;52.380;4.876;2024-01-11T03:59:32;103443.50;;;15.88;25.83
85256;BME280;75660;52.380;4.876;2024-01-11T04:01:57;103444.31;;;15.88;26.01
85256;BME280;75660;52.380;4.876;2024-01-11T04:04:23;103455.28;;;15.88;25.63
85256;BME280;75660;52.380;4.876;2024-01-11T04:06:49;103457.88;;;15.90;25.55
85256;BME280;75660;52.380;4.876;2024-01-11T04:09:15;103461.63;;;15.88;25.75
85256;BME280;75660;52.380;4.876;2024-01-11T04:11:40;103468.69;;;15.91;26.22
85256;BME280;75660;52.380;4.876;2024-01-11T04:14:06;103474.19;;;15.91;26.01
85256;BME280;75660;52.380;4.876;2024-01-11T04:16:31;103480.69;;;15.90;25.76
85256;BME280;75660;52.380;4.876;2024-01-11T04:18:57;103480.13;;;15.86;26.21
85256;BME280;75660;52.380;4.876;2024-01-11T04:21:26;103473.78;;;15.86;25.47
85256;BME280;75660;52.380;4.876;2024-01-11T04:23:55;103468.31;;;15.86;25.92
85256;BME280;75660;52.380;4.876;2024-01-11T04:26:21;103482.03;;;15.86;26.24
85256;BME280;75660;52.380;4.876;2024-01-11T04:28:47;103475.66;;;15.85;26.20
85256;BME280;75660;52.380;4.876;2024-01-11T04:31:16;103476.53;;;15.86;25.95
85256;BME280;75660;52.380;4.876;2024-01-11T04:33:45;103483.91;;;15.85;25.89
85256;BME280;75660;52.380;4.876;2024-01-11T04:36:12;103489.38;;;15.85;25.77
85256;BME280;75660;52.380;4.876;2024-01-11T04:38:37;103492.28;;;15.84;25.77
85256;BME280;75660;52.380;4.876;2024-01-11T04:41:10;103489.91;;;15.89;25.98
85256;BME280;75660;52.380;4.876;2024-01-11T04:43:38;103486.63;;;15.85;26.33
85256;BME280;75660;52.380;4.876;2024-01-11T04:46:22;103477.84;;;15.82;25.86
85256;BME280;75660;52.380;4.876;2024-01-11T04:48:49;103489.09;;;15.79;26.38
85256;BME280;75660;52.380;4.876;2024-01-11T04:51:16;103479.56;;;15.83;26.33
85256;BME280;75660;52.380;4.876;2024-01-11T04:53:42;103487.09;;;15.81;26.43
85256;BME280;75660;52.380;4.876;2024-01-11T04:56:10;103477.28;;;15.78;25.98
85256;BME280;75660;52.380;4.876;2024-01-11T04:58:36;103467.19;;;15.79;25.94
85256;BME280;75660;52.380;4.876;2024-01-11T05:01:03;103465.31;;;15.79;25.92
85256;BME280;75660;52.380;4.876;2024-01-11T05:03:28;103471.06;;;15.76;26.12
85256;BME280;75660;52.380;4.876;2024-01-11T05:05:55;103475.56;;;15.77;25.99
85256;BME280;75660;52.380;4.876;2024-01-11T05:08:20;103472.38;;;15.82;26.12
85256;BME280;75660;52.380;4.876;2024-01-11T05:10:45;103469.78;;;15.80;26.23
85256;BME280;75660;52.380;4.876;2024-01-11T05:13:11;103474.25;;;15.81;26.39
85256;BME280;75660;52.380;4.876;2024-01-11T05:15:36;103471.94;;;15.77;26.39
85256;BME280;75660;52.380;4.876;2024-01-11T05:18:02;103460.97;;;15.77;26.12
85256;BME280;75660;52.380;4.876;2024-01-11T05:20:27;103452.03;;;15.75;26.09
85256;BME280;75660;52.380;4.876;2024-01-11T05:22:54;103451.34;;;15.73;26.43
85256;BME280;75660;52.380;4.876;2024-01-11T05:25:20;103448.63;;;15.73;25.76
85256;BME280;75660;52.380;4.876;2024-01-11T05:27:45;103447.56;;;15.74;26.25
85256;BME280;75660;52.380;4.876;2024-01-11T05:30:11;103447.03;;;15.70;26.49
85256;BME280;75660;52.380;4.876;2024-01-11T05:32:36;103444.16;;;15.72;26.19
85256;BME280;75660;52.380;4.876;2024-01-11T05:35:02;103453.78;;;15.76;25.86
85256;BME280;75660;52.380;4.876;2024-01-11T05:37:27;103464.44;;;15.79;25.87
85256;BME280;75660;52.380;4.876;2024-01-11T05:39:53;103476.91;;;15.91;26.41
85256;BME280;75660;52.380;4.876;2024-01-11T05:42:19;103459.88;;;15.97;25.90
85256;BME280;75660;52.380;4.876;2024-01-11T05:44:45;103458.72;;;16.00;26.13
85256;BME280;75660;52.380;4.876;2024-01-11T05:47:10;103460.63;;;16.17;25.68
85256;BME280;75660;52.380;4.876;2024-01-11T05:49:36;103468.84;;;16.35;25.71
85256;BME280;75660;52.380;4.876;2024-01-11T05:52:01;103464.69;;;16.48;25.62
85256;BME280;75660;52.380;4.876;2024-01-11T05:54:27;103482.69;;;16.61;24.97
85256;BME280;75660;52.380;4.876;2024-01-11T05:56:54;103491.72;;;16.71;25.54
85256;BME280;75660;52.380;4.876;2024-01-11T05:59:21;103489.44;;;16.84;24.95
85256;BME280;75660;52.380;4.876;2024-01-11T06:01:47;103489.69;;;16.90;24.55
85256;BME280;75660;52.380;4.876;2024-01-11T06:04:13;103487.13;;;16.97;24.08
85256;BME280;75660;52.380;4.876;2024-01-11T06:06:39;103503.94;;;16.94;24.91
85256;BME280;75660;52.380;4.876;2024-01-11T06:09:05;103503.56;;;16.71;25.34
85256;BME280;75660;52.380;4.876;2024-01-11T06:11:30;103527.13;;;16.46;25.24
85256;BME280;75660;52.380;4.876;2024-01-11T06:13:56;103537.56;;;16.43;25.75
85256;BME280;75660;52.380;4.876;2024-01-11T06:16:22;103549.19;;;16.27;25.68
85256;BME280;75660;52.380;4.876;2024-01-11T06:18:48;103549.56;;;16.14;25.36
85256;BME280;75660;52.380;4.876;2024-01-11T06:21:13;103560.25;;;16.08;25.13
85256;BME280;75660;52.380;4.876;2024-01-11T06:23:40;103557.38;;;16.09;25.83
85256;BME280;75660;52.380;4.876;2024-01-11T06:26:07;103554.19;;;16.14;25.42
85256;BME280;75660;52.380;4.876;2024-01-11T06:28:32;103552.91;;;16.08;25.30
85256;BME280;75660;52.380;4.876;2024-01-11T06:30:59;103556.66;;;16.07;25.09
85256;BME280;75660;52.380;4.876;2024-01-11T06:33:24;103560.56;;;16.05;24.72
85256;BME280;75660;52.380;4.876;2024-01-11T06:35:50;103562.03;;;15.99;25.02
85256;BME280;75660;52.380;4.876;2024-01-11T06:38:15;103579.22;;;15.92;24.76
85256;BME280;75660;52.380;4.876;2024-01-11T06:40:41;103567.88;;;15.86;24.82
85256;BME280;75660;52.380;4.876;2024-01-11T06:43:06;103573.66;;;15.83;24.52
85256;BME280;75660;52.380;4.876;2024-01-11T06:45:32;103569.91;;;15.75;24.69
85256;BME280;75660;52.380;4.876;2024-01-11T06:47:57;103573.66;;;15.74;24.78
85256;BME280;75660;52.380;4.876;2024-01-11T06:50:23;103565.19;;;15.67;24.12
85256;BME280;75660;52.380;4.876;2024-01-11T06:52:48;103567.34;;;15.64;24.57
85256;BME280;75660;52.380;4.876;2024-01-11T06:55:13;103567.97;;;15.58;25.02
85256;BME280;75660;52.380;4.876;2024-01-11T06:57:42;103575.72;;;15.52;24.73
85256;BME280;75660;52.380;4.876;2024-01-11T07:00:10;103561.59;;;15.47;25.28
85256;BME280;75660;52.380;4.876;2024-01-11T07:02:36;103563.91;;;15.42;24.37
85256;BME280;75660;52.380;4.876;2024-01-11T07:05:01;103554.84;;;15.42;24.49
85256;BME280;75660;52.380;4.876;2024-01-11T07:07:27;103550.81;;;15.36;24.55
85256;BME280;75660;52.380;4.876;2024-01-11T07:09:53;103549.22;;;15.34;24.66
85256;BME280;75660;52.380;4.876;2024-01-11T07:12:20;103538.69;;;15.29;25.31
85256;BME280;75660;52.380;4.876;2024-01-11T07:14:46;103539.72;;;15.28;24.82
85256;BME280;75660;52.380;4.876;2024-01-11T07:17:11;103536.84;;;15.20;24.59
85256;BME280;75660;52.380;4.876;2024-01-11T07:19:37;103537.28;;;15.06;24.86
85256;BME280;75660;52.380;4.876;2024-01-11T07:22:02;103548.25;;;15.06;24.90
85256;BME280;75660;52.380;4.876;2024-01-11T07:24:28;103535.56;;;15.05;25.10
85256;BME280;75660;52.380;4.876;2024-01-11T07:27:05;103538.44;;;15.03;25.19
85256;BME280;75660;52.380;4.876;2024-01-11T07:29:31;103544.19;;;15.00;25.26
85256;BME280;75660;52.380;4.876;2024-01-11T07:31:56;103540.75;;;14.98;25.45
85256;BME280;75660;52.380;4.876;2024-01-11T07:34:22;103547.25;;;14.97;25.05
85256;BME280;75660;52.380;4.876;2024-01-11T07:36:48;103554.75;;;14.95;25.29
85256;BME280;75660;52.380;4.876;2024-01-11T07:39:13;103553.88;;;14.95;25.25
85256;BME280;75660;52.380;4.876;2024-01-11T07:41:54;103552.56;;;14.99;25.46
85256;BME280;75660;52.380;4.876;2024-01-11T07:44:19;103562.38;;;15.11;25.29
85256;BME280;75660;52.380;4.876;2024-01-11T07:46:46;103563.78;;;15.15;25.32
85256;BME280;75660;52.380;4.876;2024-01-11T07:49:11;103554.56;;;15.26;25.25
85256;BME280;75660;52.380;4.876;2024-01-11T07:51:36;103556.84;;;15.30;25.24
85256;BME280;75660;52.380;4.876;2024-01-11T07:54:02;103558.72;;;15.39;25.28
85256;BME280;75660;52.380;4.876;2024-01-11T07:56:28;103556.84;;;15.40;26.49
85256;BME280;75660;52.380;4.876;2024-01-11T07:58:54;103561.00;;;15.53;25.75
85256;BME280;75660;52.380;4.876;2024-01-11T08:01:21;103550.03;;;15.53;26.60
85256;BME280;75660;52.380;4.876;2024-01-11T08:03:48;103547.06;;;15.57;27.02
85256;BME280;75660;52.380;4.876;2024-01-11T08:06:17;103544.00;;;15.60;27.12
85256;BME280;75660;52.380;4.876;2024-01-11T08:08:43;103537.34;;;15.62;26.92
85256;BME280;75660;52.380;4.876;2024-01-11T08:11:09;103543.41;;;15.66;27.18
85256;BME280;75660;52.380;4.876;2024-01-11T08:13:37;103546.88;;;15.68;27.85
85256;BME280;75660;52.380;4.876;2024-01-11T08:16:03;103549.94;;;15.92;27.10
85256;BME280;75660;52.380;4.876;2024-01-11T08:18:30;103539.97;;;16.01;26.94
85256;BME280;75660;52.380;4.876;2024-01-11T08:20:56;103546.34;;;16.19;27.09
85256;BME280;75660;52.380;4.876;2024-01-11T08:23:21;103551.97;;;15.90;25.77
85256;BME280;75660;52.380;4.876;2024-01-11T08:25:47;103540.81;;;15.64;25.69
85256;BME280;75660;52.380;4.876;2024-01-11T08:28:13;103562.78;;;15.16;26.42
85256;BME280;75660;52.380;4.876;2024-01-11T08:30:38;103573.56;;;14.69;26.98
85256;BME280;75660;52.380;4.876;2024-01-11T08:33:04;103577.94;;;14.32;26.91
85256;BME280;75660;52.380;4.876;2024-01-11T08:35:29;103586.75;;;14.05;27.37
85256;BME280;75660;52.380;4.876;2024-01-11T08:37:57;103581.75;;;13.80;27.09
85256;BME280;75660;52.380;4.876;2024-01-11T08:40:22;103585.28;;;13.70;27.66
85256;BME280;75660;52.380;4.876;2024-01-11T08:42:48;103581.31;;;13.84;27.55
85256;BME280;75660;52.380;4.876;2024-01-11T08:45:13;103595.25;;;14.42;26.67
85256;BME280;75660;52.380;4.876;2024-01-11T08:47:46;103609.19;;;14.79;25.79
85256;BME280;75660;52.380;4.876;2024-01-11T08:50:15;103610.00;;;14.60;26.86
85256;BME280;75660;52.380;4.876;2024-01-11T08:52:41;103613.72;;;14.19;27.48
85256;BME280;75660;52.380;4.876;2024-01-11T08:55:07;103605.44;;;14.00;27.61
85256;BME280;75660;52.380;4.876;2024-01-11T08:57:33;103604.66;;;14.19;27.70
85256;BME280;75660;52.380;4.876;2024-01-11T09:00:02;103609.75;;;14.33;27.31
85256;BME280;75660;52.380;4.876;2024-01-11T09:02:27;103605.09;;;14.54;27.05
85256;BME280;75660;52.380;4.876;2024-01-11T09:04:52;103609.63;;;15.03;25.90
85256;BME280;75660;52.380;4.876;2024-01-11T09:07:18;103611.94;;;15.17;26.33
85256;BME280;75660;52.380;4.876;2024-01-11T09:09:44;103607.47;;;15.36;26.11
85256;BME280;75660;52.380;4.876;2024-01-11T09:12:11;103615.38;;;15.48;26.23
85256;BME280;75660;52.380;4.876;2024-01-11T09:14:37;103618.56;;;15.73;26.25
85256;BME280;75660;52.380;4.876;2024-01-11T09:17:02;103613.06;;;15.73;26.56
85256;BME280;75660;52.380;4.876;2024-01-11T09:19:32;103608.59;;;15.72;26.56
85256;BME280;75660;52.380;4.876;2024-01-11T09:22:02;103616.25;;;15.68;26.38
85256;BME280;75660;52.380;4.876;2024-01-11T09:24:27;103620.50;;;15.90;26.46
85256;BME280;75660;52.380;4.876;2024-01-11T09:26:54;103627.34;;;15.67;26.93
85256;BME280;75660;52.380;4.876;2024-01-11T09:29:19;103636.44;;;15.38;27.66
85256;BME280;75660;52.380;4.876;2024-01-11T09:31:45;103629.34;;;15.45;27.43
85256;BME280;75660;52.380;4.876;2024-01-11T09:34:11;103637.56;;;15.45;27.48
85256;BME280;75660;52.380;4.876;2024-01-11T09:36:36;103641.91;;;15.29;27.56
85256;BME280;75660;52.380;4.876;2024-01-11T09:39:04;103641.72;;;15.88;26.96
85256;BME280;75660;52.380;4.876;2024-01-11T09:41:31;103647.53;;;16.59;26.97
85256;BME280;75660;52.380;4.876;2024-01-11T09:44:00;103656.00;;;16.01;26.98
85256;BME280;75660;52.380;4.876;2024-01-11T09:46:26;103650.13;;;15.77;27.04
85256;BME280;75660;52.380;4.876;2024-01-11T09:48:53;103641.59;;;15.80;27.79
85256;BME280;75660;52.380;4.876;2024-01-11T09:51:23;103631.94;;;15.76;27.04
85256;BME280;75660;52.380;4.876;2024-01-11T09:53:51;103632.81;;;15.76;28.32
85256;BME280;75660;52.380;4.876;2024-01-11T09:56:17;103624.03;;;15.63;27.88
85256;BME280;75660;52.380;4.876;2024-01-11T09:58:46;103635.44;;;15.68;27.66
85256;BME280;75660;52.380;4.876;2024-01-11T10:01:15;103633.13;;;15.64;27.73
85256;BME280;75660;52.380;4.876;2024-01-11T10:03:42;103633.00;;;15.56;28.21
85256;BME280;75660;52.380;4.876;2024-01-11T10:06:08;103637.13;;;15.79;27.28
85256;BME280;75660;52.380;4.876;2024-01-11T10:08:35;103632.88;;;16.04;27.03
85256;BME280;75660;52.380;4.876;2024-01-11T10:11:01;103633.44;;;16.07;26.96
85256;BME280;75660;52.380;4.876;2024-01-11T10:13:29;103639.06;;;16.15;26.88
85256;BME280;75660;52.380;4.876;2024-01-11T10:16:11;103633.44;;;16.17;26.85
85256;BME280;75660;52.380;4.876;2024-01-11T10:18:41;103630.00;;;16.33;26.89
85256;BME280;75660;52.380;4.876;2024-01-11T10:21:06;103633.16;;;16.38;26.97
85256;BME280;75660;52.380;4.876;2024-01-11T10:23:35;103638.66;;;16.38;27.23
85256;BME280;75660;52.380;4.876;2024-01-11T10:26:02;103633.72;;;16.14;28.01
85256;BME280;75660;52.380;4.876;2024-01-11T10:28:27;103640.22;;;16.03;27.96
85256;BME280;75660;52.380;4.876;2024-01-11T10:30:53;103644.59;;;15.96;28.24
85256;BME280;75660;52.380;4.876;2024-01-11T10:33:20;103653.84;;;15.95;28.64
85256;BME280;75660;52.380;4.876;2024-01-11T10:35:49;103652.25;;;15.93;28.78
85256;BME280;75660;52.380;4.876;2024-01-11T10:38:17;103654.13;;;15.92;28.84
85256;BME280;75660;52.380;4.876;2024-01-11T10:40:43;103656.72;;;15.94;29.43
85256;BME280;75660;52.380;4.876;2024-01-11T10:43:10;103654.13;;;15.92;29.45
85256;BME280;75660;52.380;4.876;2024-01-11T10:45:38;103654.44;;;15.79;28.99
85256;BME280;75660;52.380;4.876;2024-01-11T10:50:42;103668.59;;;15.75;29.28
85256;BME280;75660;52.380;4.876;2024-01-11T10:55:50;103665.69;;;15.76;29.57
85256;BME280;75660;52.380;4.876;2024-01-11T10:58:16;103666.41;;;15.78;29.13
85256;BME280;75660;52.380;4.876;2024-01-11T11:00:43;103670.63;;;15.63;30.04
85256;BME280;75660;52.380;4.876;2024-01-11T11:03:11;103678.09;;;15.32;31.05
85256;BME280;75660;52.380;4.876;2024-01-11T11:05:37;103666.06;;;14.85;32.38
85256;BME280;75660;52.380;4.876;2024-01-11T11:08:07;103667.16;;;15.13;32.27
85256;BME280;75660;52.380;4.876;2024-01-11T11:10:34;103661.97;;;15.39;34.96
85256;BME280;75660;52.380;4.876;2024-01-11T11:13:02;103656.34;;;15.50;36.47
85256;BME280;75660;52.380;4.876;2024-01-11T11:15:28;103659.22;;;15.87;36.31
85256;BME280;75660;52.380;4.876;2024-01-11T11:17:55;103643.78;;;15.76;37.67
85256;BME280;75660;52.380;4.876;2024-01-11T11:20:20;103631.50;;;15.80;37.30
85256;BME280;75660;52.380;4.876;2024-01-11T11:23:07;103636.88;;;15.72;37.66
85256;BME280;75660;52.380;4.876;2024-01-11T11:25:34;103635.38;;;15.97;36.60
85256;BME280;75660;52.380;4.876;2024-01-11T11:27:59;103628.09;;;16.06;36.34
85256;BME280;75660;52.380;4.876;2024-01-11T11:30:29;103620.00;;;16.14;36.32
85256;BME280;75660;52.380;4.876;2024-01-11T11:32:55;103629.81;;;16.16;35.50
85256;BME280;75660;52.380;4.876;2024-01-11T11:35:28;103617.94;;;16.26;34.94
85256;BME280;75660;52.380;4.876;2024-01-11T11:37:56;103610.72;;;16.25;34.80
85256;BME280;75660;52.380;4.876;2024-01-11T11:40:36;103614.16;;;16.27;34.57
85256;BME280;75660;52.380;4.876;2024-01-11T11:43:07;103615.28;;;16.34;33.37
85256;BME280;75660;52.380;4.876;2024-01-11T11:45:33;103610.16;;;16.21;32.65
85256;BME280;75660;52.380;4.876;2024-01-11T11:47:58;103614.75;;;16.20;33.67
85256;BME280;75660;52.380;4.876;2024-01-11T11:50:24;103615.75;;;16.29;38.28
85256;BME280;75660;52.380;4.876;2024-01-11T11:52:56;103614.91;;;16.19;46.74
85256;BME280;75660;52.380;4.876;2024-01-11T11:55:23;103614.03;;;16.18;45.66
85256;BME280;75660;52.380;4.876;2024-01-11T11:57:52;103603.56;;;16.04;48.22
85256;BME280;75660;52.380;4.876;2024-01-11T12:00:22;103606.66;;;15.92;48.34
85256;BME280;75660;52.380;4.876;2024-01-11T12:02:49;103597.41;;;15.93;48.32
85256;BME280;75660;52.380;4.876;2024-01-11T12:05:17;103590.06;;;15.93;48.57
85256;BME280;75660;52.380;4.876;2024-01-11T12:07:44;103584.28;;;15.96;46.87
85256;BME280;75660;52.380;4.876;2024-01-11T12:10:10;103580.00;;;15.84;47.43
85256;BME280;75660;52.380;4.876;2024-01-11T12:12:36;103571.06;;;15.82;46.48
85256;BME280;75660;52.380;4.876;2024-01-11T12:15:03;103573.50;;;15.85;46.02
85256;BME280;75660;52.380;4.876;2024-01-11T12:17:29;103569.47;;;15.79;44.29
85256;BME280;75660;52.380;4.876;2024-01-11T12:19:54;103564.75;;;15.72;43.07
85256;BME280;75660;52.380;4.876;2024-01-11T12:22:20;103555.81;;;15.70;41.28
85256;BME280;75660;52.380;4.876;2024-01-11T12:24:46;103554.06;;;15.69;40.27
85256;BME280;75660;52.380;4.876;2024-01-11T12:27:12;103549.00;;;15.74;39.52
85256;BME280;75660;52.380;4.876;2024-01-11T12:29:39;103554.19;;;15.77;38.30
85256;BME280;75660;52.380;4.876;2024-01-11T12:32:05;103553.16;;;15.78;37.63
85256;BME280;75660;52.380;4.876;2024-01-11T12:34:31;103557.22;;;15.74;37.99
85256;BME280;75660;52.380;4.876;2024-01-11T12:36:58;103562.00;;;15.72;37.02
85256;BME280;75660;52.380;4.876;2024-01-11T12:39:26;103554.06;;;15.69;37.12
85256;BME280;75660;52.380;4.876;2024-01-11T12:41:54;103542.69;;;15.64;36.17
85256;BME280;75660;52.380;4.876;2024-01-11T12:44:20;103533.75;;;15.62;35.94
85256;BME280;75660;52.380;4.876;2024-01-11T12:46:47;103533.34;;;15.57;36.50
85256;BME280;75660;52.380;4.876;2024-01-11T12:49:14;103531.28;;;15.59;36.19
85256;BME280;75660;52.380;4.876;2024-01-11T12:51:40;103537.81;;;15.58;35.61